This is the latest recevied weather packets stored in our database for station/object OE-11349. If no packets are shown the sender has not sent any weather packets the latest 10 day(s).
| Time | Temp. | Humidity | Pressure | Rain* | Wind** | Luminosity | Snow |
|---|---|---|---|---|---|---|---|
| 1787934309 | 22.78° C | 51% | 851.3 hPa | - | - | 110 W/m² | - |
| 1787933482 | 22.78° C | 51% | 851.3 hPa | - | - | 124 W/m² | - |
| 1787933109 | 22.78° C | 48% | 851.3 hPa | - | - | 138 W/m² | - |
| 1787932509 | 22.78° C | 48% | 851.4 hPa | - | - | 151 W/m² | - |
| 1787931682 | 22.78° C | 51% | 851.9 hPa | - | - | 131 W/m² | - |
| 1787931309 | 23.33° C | 51% | 851.9 hPa | - | - | 186 W/m² | - |
| 1787930709 | 23.33° C | 51% | 851.9 hPa | - | - | 365 W/m² | - |
| 1787929882 | 23.33° C | 51% | 851.9 hPa | - | - | 282 W/m² | - |
| 1787929508 | 23.33° C | 51% | 852.2 hPa | - | - | 220 W/m² | - |
| 1787928908 | 23.33° C | 50% | 852.2 hPa | - | - | 330 W/m² | - |
| 1787928082 | 24.44° C | 50% | 852.3 hPa | - | - | 434 W/m² | - |
| 1787927708 | 24.44° C | 49% | 852.3 hPa | - | - | 592 W/m² | - |
| 1787927108 | 24.44° C | 49% | 852.5 hPa | - | - | 544 W/m² | - |
| 1787926282 | 24.44° C | 48% | 852.5 hPa | - | - | 502 W/m² | - |
| 1787925909 | 24.44° C | 49% | 852.6 hPa | - | - | 633 W/m² | - |
| 1787925309 | 23.89° C | 49% | 852.8 hPa | - | - | 537 W/m² | - |
| 1787924482 | 23.89° C | 49% | 852.8 hPa | - | - | 530 W/m² | - |
| 1787924109 | 24.44° C | 48% | 852.8 hPa | - | - | 544 W/m² | - |
| 1787923509 | 24.44° C | 46% | 852.5 hPa | - | - | 743 W/m² | - |
| 1787922680 | 24.44° C | 46% | 852.5 hPa | - | - | 785 W/m² | - |
| 1787922308 | 24.44° C | 46% | 852.5 hPa | - | - | 791 W/m² | - |
| 1787921709 | 24.44° C | 46% | 852.5 hPa | - | - | 619 W/m² | - |
| 1787920881 | 24.44° C | 46% | 852.5 hPa | - | - | 743 W/m² | - |
| 1787920509 | 24.44° C | 47% | 852.5 hPa | - | - | 599 W/m² | - |
| 1787919909 | 23.33° C | 48% | 852.5 hPa | - | - | 434 W/m² | - |
* Rain since midnight (hover to see other rain measurements)
** Current wind speed in m/s (hover to see current wind gust speed)